createdAt,value
2019-01-31T12:27:05.469Z,28.03
2019-01-31T12:29:34.178Z,30.17
2019-01-31T12:32:02.820Z,29.67
2019-01-31T12:34:31.375Z,32.77
2019-01-31T12:37:00.033Z,29.90
2019-01-31T12:39:30.078Z,33.83
2019-01-31T12:41:58.561Z,34.47
2019-01-31T12:44:27.270Z,34.83
2019-01-31T12:46:56.249Z,34.67
2019-01-31T12:49:24.720Z,31.70
2019-01-31T12:51:53.201Z,28.30
2019-01-31T12:54:22.449Z,33.97
2019-01-31T12:56:51.331Z,29.73
2019-01-31T12:59:20.541Z,32.80
2019-01-31T13:01:49.366Z,40.67
2019-01-31T13:04:20.534Z,28.80
2019-01-31T13:06:48.544Z,33.30
2019-01-31T13:09:18.868Z,37.03
2019-01-31T13:11:47.693Z,31.50
2019-01-31T13:14:16.398Z,29.73
2019-01-31T13:16:45.299Z,29.67
2019-01-31T13:19:14.139Z,37.53
2019-01-31T13:21:43.086Z,33.67
2019-01-31T13:24:11.851Z,33.30
2019-01-31T13:26:40.775Z,32.07
2019-01-31T13:29:09.743Z,36.13
2019-01-31T13:31:38.796Z,36.20
2019-01-31T13:34:08.779Z,42.77
2019-01-31T13:36:37.435Z,43.57
2019-01-31T13:39:10.415Z,37.97
2019-01-31T13:41:41.786Z,36.80
2019-01-31T13:44:10.106Z,43.50
2019-01-31T13:46:39.123Z,37.43
2019-01-31T13:49:08.048Z,38.07
2019-01-31T13:51:36.779Z,42.40
2019-01-31T13:54:06.479Z,39.90
2019-01-31T13:56:45.274Z,37.63
2019-01-31T13:59:05.645Z,43.00
2019-01-31T14:01:34.439Z,39.33
2019-01-31T14:04:03.155Z,35.80
2019-01-31T14:06:32.061Z,41.33
2019-01-31T14:09:00.749Z,37.37
2019-01-31T14:11:29.622Z,35.23
2019-01-31T14:14:08.744Z,38.93
2019-01-31T14:16:29.243Z,27.00
2019-01-31T14:18:58.207Z,36.93
2019-01-31T14:21:26.882Z,36.43
2019-01-31T14:23:56.418Z,36.70
2019-01-31T14:26:25.173Z,41.90
2019-01-31T14:28:53.951Z,39.07
2019-01-31T14:31:22.808Z,37.37
2019-01-31T14:33:51.704Z,38.83
2019-01-31T14:36:20.585Z,39.97
2019-01-31T14:38:49.517Z,42.47
2019-01-31T14:41:18.258Z,34.70
2019-01-31T14:43:46.949Z,39.30
2019-01-31T14:46:15.954Z,38.15
2019-01-31T14:48:45.041Z,42.60
2019-01-31T14:51:13.702Z,35.93
2019-01-31T14:53:42.764Z,36.43
2019-01-31T14:56:11.588Z,41.30
2019-01-31T14:58:40.313Z,41.73
2019-01-31T15:01:09.064Z,40.07
2019-01-31T15:03:38.005Z,36.57
2019-01-31T15:06:06.771Z,39.27
2019-01-31T15:08:35.657Z,42.13
2019-01-31T15:11:05.094Z,41.67
2019-01-31T15:13:33.885Z,44.60
2019-01-31T15:16:04.194Z,43.60
2019-01-31T15:18:33.156Z,52.43
2019-01-31T15:21:01.969Z,51.80
2019-01-31T15:23:30.655Z,53.90
2019-01-31T15:25:59.448Z,46.30
2019-01-31T15:28:28.157Z,45.10
2019-01-31T15:30:56.917Z,40.87
2019-01-31T15:33:27.590Z,21.33
2019-01-31T15:35:56.471Z,13.77
2019-01-31T15:38:25.459Z,5.57
2019-01-31T15:40:54.204Z,15.67
2019-01-31T15:43:23.233Z,1.53
2019-01-31T15:45:51.955Z,2.05
2019-01-31T15:48:20.800Z,4.30
2019-01-31T15:50:49.517Z,5.00
2019-01-31T15:53:18.192Z,1.47
2019-01-31T15:55:46.967Z,1.50
2019-01-31T15:58:15.843Z,2.30
2019-01-31T16:00:49.808Z,4.35
2019-01-31T16:03:19.895Z,2.60
2019-01-31T16:05:49.264Z,2.07
2019-01-31T16:08:18.007Z,1.73
2019-01-31T16:10:47.262Z,2.20
2019-01-31T16:13:16.109Z,3.13
2019-01-31T16:15:45.241Z,2.10
2019-01-31T16:18:14.367Z,2.13
2019-01-31T16:20:43.577Z,2.13
2019-01-31T16:23:12.459Z,2.55
2019-01-31T16:25:41.889Z,2.50
2019-01-31T16:28:10.825Z,3.57
2019-01-31T16:30:39.517Z,3.58
2019-01-31T16:33:08.822Z,3.23
2019-01-31T16:35:37.516Z,2.50
2019-01-31T16:38:07.371Z,3.87
2019-01-31T16:40:36.202Z,2.73
2019-01-31T16:43:06.271Z,4.27
2019-01-31T16:45:34.980Z,2.30
2019-01-31T16:48:04.264Z,2.20
2019-01-31T16:50:33.410Z,2.90
2019-01-31T16:53:02.058Z,4.03
2019-01-31T16:55:31.274Z,1.60
2019-01-31T16:58:00.534Z,2.00
2019-01-31T17:00:32.000Z,3.23
2019-01-31T17:03:00.932Z,2.33
2019-01-31T17:05:31.897Z,2.40
2019-01-31T17:08:00.817Z,1.83
2019-01-31T17:10:29.685Z,2.67
2019-01-31T17:12:58.456Z,3.70
2019-01-31T17:15:27.414Z,2.17
2019-01-31T17:17:56.271Z,3.43
2019-01-31T17:20:36.803Z,2.70
2019-01-31T17:23:05.874Z,2.93
2019-01-31T17:25:34.529Z,1.67
2019-01-31T17:28:03.281Z,2.23
2019-01-31T17:30:31.960Z,2.30
2019-01-31T17:33:00.624Z,3.67
2019-01-31T17:35:29.317Z,4.27
2019-01-31T17:37:57.995Z,3.60
2019-01-31T17:40:35.529Z,3.40
2019-01-31T17:43:04.885Z,2.53
2019-01-31T17:45:33.548Z,3.93
2019-01-31T17:48:02.432Z,5.40
2019-01-31T17:50:31.092Z,4.07
2019-01-31T17:52:59.805Z,6.83
2019-01-31T17:55:28.895Z,4.70
2019-01-31T17:57:57.554Z,6.67
2019-01-31T18:00:39.372Z,4.57
2019-01-31T18:03:08.737Z,6.07
2019-01-31T18:05:37.418Z,6.67
2019-01-31T18:08:09.159Z,6.13
2019-01-31T18:10:36.960Z,6.53
2019-01-31T18:13:05.804Z,4.37
2019-01-31T18:15:41.691Z,4.67
2019-01-31T18:18:06.128Z,3.57
2019-01-31T18:20:34.820Z,4.67
2019-01-31T18:23:03.469Z,3.40
2019-01-31T18:25:32.178Z,3.80
2019-01-31T18:28:00.873Z,2.30
2019-01-31T18:30:32.419Z,2.47
2019-01-31T18:33:01.156Z,3.40
2019-01-31T18:35:30.801Z,3.40
2019-01-31T18:37:59.448Z,3.60
2019-01-31T18:40:33.582Z,5.30
2019-01-31T18:43:02.371Z,24.40
2019-01-31T18:45:33.759Z,20.37
2019-01-31T18:48:02.597Z,15.63
2019-01-31T18:50:36.925Z,18.67
2019-01-31T18:53:06.102Z,20.67
2019-01-31T18:55:34.804Z,21.17
2019-01-31T18:58:03.550Z,20.20
2019-01-31T19:00:37.923Z,22.17
2019-01-31T19:03:07.834Z,22.00
2019-01-31T19:05:36.605Z,19.03
2019-01-31T19:08:08.871Z,19.60
2019-01-31T19:10:43.441Z,19.87
2019-01-31T19:13:06.784Z,18.80
2019-01-31T19:15:35.495Z,19.03
2019-01-31T19:18:06.248Z,18.07
2019-01-31T19:20:35.453Z,17.93
2019-01-31T19:23:06.623Z,18.67
2019-01-31T19:25:35.287Z,25.70
2019-01-31T19:28:04.761Z,25.80
2019-01-31T19:30:38.002Z,24.10
2019-01-31T19:33:08.169Z,27.50
2019-01-31T19:35:37.544Z,37.27
2019-01-31T19:38:07.563Z,31.80
2019-01-31T19:40:38.599Z,37.23
2019-01-31T19:43:08.742Z,32.70
2019-01-31T19:45:40.321Z,30.20
2019-01-31T19:48:11.174Z,35.93
2019-01-31T19:50:43.393Z,36.63
2019-01-31T19:53:13.918Z,35.03
2019-01-31T19:55:42.896Z,27.07
2019-01-31T19:58:11.772Z,30.67
2019-01-31T20:00:40.811Z,30.03
2019-01-31T20:03:09.981Z,29.20
2019-01-31T20:05:38.717Z,27.27
2019-01-31T20:08:09.314Z,29.87
2019-01-31T20:10:38.033Z,32.97
2019-01-31T20:13:06.773Z,33.80
2019-01-31T20:15:35.642Z,35.57
2019-01-31T20:18:04.663Z,41.93
2019-01-31T20:20:33.562Z,29.20
2019-01-31T20:23:02.240Z,33.50
2019-01-31T20:25:31.758Z,32.43
2019-01-31T20:28:00.422Z,28.10
2019-01-31T20:30:31.097Z,30.57
2019-01-31T20:33:01.132Z,34.43
2019-01-31T20:35:30.309Z,30.80
2019-01-31T20:37:59.212Z,27.40
2019-01-31T20:40:39.079Z,33.70
2019-01-31T20:43:07.994Z,32.33
2019-01-31T20:45:37.064Z,33.17
2019-01-31T20:48:06.250Z,30.23
2019-01-31T20:50:36.921Z,44.93
2019-01-31T20:53:06.151Z,33.83
2019-01-31T20:55:34.823Z,30.93
2019-01-31T20:58:03.831Z,28.13
2019-01-31T21:00:38.447Z,28.97
2019-01-31T21:03:08.313Z,33.17
2019-01-31T21:05:37.485Z,33.20
2019-01-31T21:08:07.039Z,35.80
2019-01-31T21:10:36.093Z,31.33
2019-01-31T21:13:06.490Z,31.93
2019-01-31T21:15:35.174Z,25.77
2019-01-31T21:18:04.451Z,25.50
2019-01-31T21:20:33.110Z,32.57
2019-01-31T21:23:01.781Z,25.23
2019-01-31T21:25:34.525Z,23.67
2019-01-31T21:28:03.120Z,27.47
2019-01-31T21:30:34.482Z,22.67
2019-01-31T21:33:03.251Z,24.43
2019-01-31T21:35:32.118Z,22.57
2019-01-31T21:38:00.783Z,22.63
2019-01-31T21:40:34.669Z,21.97
2019-01-31T21:43:03.835Z,22.97
2019-01-31T21:45:32.502Z,20.57
2019-01-31T21:48:01.307Z,24.23
2019-01-31T21:50:33.809Z,26.67
2019-01-31T21:53:02.526Z,24.93
2019-01-31T21:55:31.331Z,25.67
2019-01-31T21:58:00.030Z,24.93
2019-01-31T22:00:34.356Z,23.13
2019-01-31T22:03:04.907Z,27.63
2019-01-31T22:05:33.787Z,27.53
2019-01-31T22:08:02.593Z,25.47
2019-01-31T22:10:31.582Z,25.43
2019-01-31T22:13:02.791Z,29.57
2019-01-31T22:15:33.918Z,32.30
2019-01-31T22:18:02.641Z,30.97
2019-01-31T22:20:31.319Z,32.93
2019-01-31T22:23:00.008Z,35.60
2019-01-31T22:25:28.761Z,29.67
2019-01-31T22:27:57.439Z,29.17
2019-01-31T22:30:34.802Z,33.83
2019-01-31T22:33:03.512Z,34.67
2019-01-31T22:35:32.514Z,34.13
2019-01-31T22:38:01.391Z,35.53
2019-01-31T22:40:30.142Z,37.27
2019-01-31T22:42:58.888Z,44.60
2019-01-31T22:45:29.850Z,39.47
2019-01-31T22:47:58.519Z,33.73
2019-01-31T22:50:27.272Z,34.93
2019-01-31T22:52:55.959Z,34.93
2019-01-31T22:55:26.624Z,37.50
2019-01-31T22:57:55.806Z,32.67
2019-01-31T23:00:35.048Z,31.00
2019-01-31T23:03:04.523Z,40.20
2019-01-31T23:05:33.207Z,36.40
2019-01-31T23:08:01.912Z,31.90
2019-01-31T23:10:30.920Z,33.77
2019-01-31T23:12:59.892Z,32.70
2019-01-31T23:15:28.578Z,34.77
2019-01-31T23:17:57.271Z,35.03
2019-01-31T23:20:26.059Z,30.30
2019-01-31T23:22:54.955Z,30.47
2019-01-31T23:25:23.684Z,30.40
2019-01-31T23:27:52.453Z,31.10
2019-01-31T23:30:21.058Z,28.47
2019-01-31T23:32:49.728Z,33.23
2019-01-31T23:35:18.400Z,32.23
2019-01-31T23:37:47.119Z,29.50
2019-01-31T23:40:16.596Z,34.43
2019-01-31T23:42:45.433Z,31.40
2019-01-31T23:45:18.774Z,28.17
2019-01-31T23:47:48.918Z,26.87
2019-01-31T23:50:17.994Z,26.80
2019-01-31T23:52:46.664Z,25.33
2019-01-31T23:55:17.041Z,27.93
2019-01-31T23:57:45.727Z,24.97
